sensor_id;sensor_type;location;lat;lon;timestamp;P1;durP1;ratioP1;P2;durP2;ratioP2
19434;SDS011;9853;50.848;4.108;2022-09-06T00:00:31;4.30;;;3.00;;
19434;SDS011;9853;50.848;4.108;2022-09-06T00:02:33;5.47;;;2.92;;
19434;SDS011;9853;50.848;4.108;2022-09-06T00:04:35;5.63;;;2.70;;
19434;SDS011;9853;50.848;4.108;2022-09-06T00:06:35;7.10;;;2.72;;
19434;SDS011;9853;50.848;4.108;2022-09-06T00:08:36;3.70;;;2.70;;
19434;SDS011;9853;50.848;4.108;2022-09-06T00:10:37;6.88;;;3.15;;
19434;SDS011;9853;50.848;4.108;2022-09-06T00:12:38;4.57;;;3.00;;
19434;SDS011;9853;50.848;4.108;2022-09-06T00:14:39;4.55;;;2.55;;
19434;SDS011;9853;50.848;4.108;2022-09-06T00:16:40;7.18;;;3.03;;
19434;SDS011;9853;50.848;4.108;2022-09-06T00:18:41;5.80;;;2.65;;
19434;SDS011;9853;50.848;4.108;2022-09-06T00:20:43;6.40;;;2.70;;
19434;SDS011;9853;50.848;4.108;2022-09-06T00:22:43;5.05;;;2.55;;
19434;SDS011;9853;50.848;4.108;2022-09-06T00:24:44;5.22;;;2.85;;
19434;SDS011;9853;50.848;4.108;2022-09-06T00:26:45;5.03;;;2.30;;
19434;SDS011;9853;50.848;4.108;2022-09-06T00:28:45;5.75;;;2.22;;
19434;SDS011;9853;50.848;4.108;2022-09-06T00:30:46;4.55;;;2.70;;
19434;SDS011;9853;50.848;4.108;2022-09-06T00:32:47;5.25;;;2.45;;
19434;SDS011;9853;50.848;4.108;2022-09-06T00:34:47;5.28;;;2.58;;
19434;SDS011;9853;50.848;4.108;2022-09-06T00:36:48;5.47;;;2.30;;
19434;SDS011;9853;50.848;4.108;2022-09-06T00:38:49;4.65;;;2.38;;
19434;SDS011;9853;50.848;4.108;2022-09-06T00:40:50;5.65;;;2.45;;
19434;SDS011;9853;50.848;4.108;2022-09-06T00:42:50;3.67;;;2.40;;
19434;SDS011;9853;50.848;4.108;2022-09-06T00:44:51;4.55;;;2.45;;
19434;SDS011;9853;50.848;4.108;2022-09-06T00:46:52;3.72;;;2.47;;
19434;SDS011;9853;50.848;4.108;2022-09-06T00:49:08;3.25;;;2.40;;
19434;SDS011;9853;50.848;4.108;2022-09-06T00:51:14;4.18;;;2.30;;
19434;SDS011;9853;50.848;4.108;2022-09-06T00:53:16;3.50;;;2.03;;
19434;SDS011;9853;50.848;4.108;2022-09-06T00:55:19;4.47;;;2.25;;
19434;SDS011;9853;50.848;4.108;2022-09-06T00:57:20;3.60;;;2.00;;
19434;SDS011;9853;50.848;4.108;2022-09-06T00:59:26;3.42;;;2.53;;
19434;SDS011;9853;50.848;4.108;2022-09-06T01:01:30;6.65;;;2.35;;
19434;SDS011;9853;50.848;4.108;2022-09-06T01:03:30;5.38;;;2.50;;
19434;SDS011;9853;50.848;4.108;2022-09-06T01:05:35;6.15;;;2.50;;
19434;SDS011;9853;50.848;4.108;2022-09-06T01:13:21;5.38;;;2.67;;
19434;SDS011;9853;50.848;4.108;2022-09-06T01:21:50;6.90;;;2.92;;
19434;SDS011;9853;50.848;4.108;2022-09-06T01:29:08;9.82;;;2.83;;
19434;SDS011;9853;50.848;4.108;2022-09-06T01:31:34;7.50;;;2.50;;
19434;SDS011;9853;50.848;4.108;2022-09-06T01:35:54;4.63;;;2.63;;
19434;SDS011;9853;50.848;4.108;2022-09-06T01:37:59;7.93;;;3.22;;
19434;SDS011;9853;50.848;4.108;2022-09-06T01:40:02;6.15;;;2.97;;
19434;SDS011;9853;50.848;4.108;2022-09-06T01:42:12;5.47;;;3.00;;
19434;SDS011;9853;50.848;4.108;2022-09-06T01:44:18;6.95;;;2.53;;
19434;SDS011;9853;50.848;4.108;2022-09-06T01:46:32;3.35;;;2.58;;
19434;SDS011;9853;50.848;4.108;2022-09-06T01:50:57;5.00;;;2.55;;
19434;SDS011;9853;50.848;4.108;2022-09-06T02:00:00;4.20;;;2.42;;
19434;SDS011;9853;50.848;4.108;2022-09-06T02:02:13;4.22;;;2.90;;
19434;SDS011;9853;50.848;4.108;2022-09-06T02:04:27;5.05;;;2.70;;
19434;SDS011;9853;50.848;4.108;2022-09-06T02:06:34;7.88;;;2.90;;
19434;SDS011;9853;50.848;4.108;2022-09-06T02:08:49;5.22;;;2.75;;
19434;SDS011;9853;50.848;4.108;2022-09-06T02:10:56;6.72;;;2.70;;
19434;SDS011;9853;50.848;4.108;2022-09-06T02:12:59;5.63;;;2.70;;
19434;SDS011;9853;50.848;4.108;2022-09-06T02:15:14;6.65;;;2.45;;
19434;SDS011;9853;50.848;4.108;2022-09-06T02:17:21;10.98;;;2.90;;
19434;SDS011;9853;50.848;4.108;2022-09-06T02:19:41;6.68;;;2.70;;
19434;SDS011;9853;50.848;4.108;2022-09-06T02:21:48;6.78;;;2.92;;
19434;SDS011;9853;50.848;4.108;2022-09-06T02:23:52;8.05;;;2.80;;
19434;SDS011;9853;50.848;4.108;2022-09-06T02:25:56;7.03;;;2.80;;
19434;SDS011;9853;50.848;4.108;2022-09-06T02:28:06;9.95;;;2.80;;
19434;SDS011;9853;50.848;4.108;2022-09-06T02:30:08;5.10;;;2.55;;
19434;SDS011;9853;50.848;4.108;2022-09-06T02:32:19;3.90;;;2.70;;
19434;SDS011;9853;50.848;4.108;2022-09-06T02:34:22;4.57;;;3.00;;
19434;SDS011;9853;50.848;4.108;2022-09-06T02:36:22;9.15;;;2.40;;
19434;SDS011;9853;50.848;4.108;2022-09-06T02:38:23;3.70;;;2.88;;
19434;SDS011;9853;50.848;4.108;2022-09-06T02:40:26;6.00;;;2.80;;
19434;SDS011;9853;50.848;4.108;2022-09-06T02:42:27;7.15;;;3.20;;
19434;SDS011;9853;50.848;4.108;2022-09-06T02:44:27;3.65;;;2.50;;
19434;SDS011;9853;50.848;4.108;2022-09-06T02:46:28;4.93;;;2.63;;
19434;SDS011;9853;50.848;4.108;2022-09-06T02:48:29;3.60;;;2.50;;
19434;SDS011;9853;50.848;4.108;2022-09-06T02:50:29;4.28;;;2.65;;
19434;SDS011;9853;50.848;4.108;2022-09-06T02:52:30;9.68;;;3.10;;
19434;SDS011;9853;50.848;4.108;2022-09-06T02:54:31;4.88;;;2.90;;
19434;SDS011;9853;50.848;4.108;2022-09-06T02:56:32;4.38;;;3.15;;
19434;SDS011;9853;50.848;4.108;2022-09-06T02:58:33;4.53;;;2.92;;
19434;SDS011;9853;50.848;4.108;2022-09-06T03:00:34;3.47;;;2.65;;
19434;SDS011;9853;50.848;4.108;2022-09-06T03:02:36;9.32;;;3.28;;
19434;SDS011;9853;50.848;4.108;2022-09-06T03:04:37;5.28;;;3.20;;
19434;SDS011;9853;50.848;4.108;2022-09-06T03:06:37;5.60;;;3.63;;
19434;SDS011;9853;50.848;4.108;2022-09-06T03:08:38;5.72;;;2.90;;
19434;SDS011;9853;50.848;4.108;2022-09-06T03:10:39;5.10;;;3.38;;
19434;SDS011;9853;50.848;4.108;2022-09-06T03:12:43;8.18;;;3.35;;
19434;SDS011;9853;50.848;4.108;2022-09-06T03:14:44;8.98;;;3.40;;
19434;SDS011;9853;50.848;4.108;2022-09-06T03:16:45;5.25;;;3.60;;
19434;SDS011;9853;50.848;4.108;2022-09-06T03:18:45;9.20;;;3.95;;
19434;SDS011;9853;50.848;4.108;2022-09-06T03:20:48;5.78;;;3.25;;
19434;SDS011;9853;50.848;4.108;2022-09-06T03:22:49;7.82;;;3.97;;
19434;SDS011;9853;50.848;4.108;2022-09-06T03:24:50;5.80;;;3.55;;
19434;SDS011;9853;50.848;4.108;2022-09-06T03:26:51;6.88;;;3.80;;
19434;SDS011;9853;50.848;4.108;2022-09-06T03:28:52;4.97;;;3.67;;
19434;SDS011;9853;50.848;4.108;2022-09-06T03:30:53;6.40;;;3.60;;
19434;SDS011;9853;50.848;4.108;2022-09-06T03:32:53;6.40;;;3.50;;
19434;SDS011;9853;50.848;4.108;2022-09-06T03:34:54;8.13;;;4.15;;
19434;SDS011;9853;50.848;4.108;2022-09-06T03:36:58;9.80;;;4.38;;
19434;SDS011;9853;50.848;4.108;2022-09-06T03:38:58;10.30;;;4.50;;
19434;SDS011;9853;50.848;4.108;2022-09-06T03:40:59;6.28;;;4.00;;
19434;SDS011;9853;50.848;4.108;2022-09-06T03:43:00;5.78;;;4.07;;
19434;SDS011;9853;50.848;4.108;2022-09-06T03:45:01;6.30;;;4.43;;
19434;SDS011;9853;50.848;4.108;2022-09-06T03:47:02;5.93;;;4.13;;
19434;SDS011;9853;50.848;4.108;2022-09-06T03:49:03;6.65;;;4.70;;
19434;SDS011;9853;50.848;4.108;2022-09-06T03:51:03;8.57;;;4.70;;
19434;SDS011;9853;50.848;4.108;2022-09-06T03:53:04;18.63;;;5.30;;
19434;SDS011;9853;50.848;4.108;2022-09-06T03:55:05;8.38;;;4.70;;
19434;SDS011;9853;50.848;4.108;2022-09-06T03:57:06;9.02;;;5.20;;
19434;SDS011;9853;50.848;4.108;2022-09-06T03:59:07;12.00;;;5.68;;
19434;SDS011;9853;50.848;4.108;2022-09-06T04:01:10;9.27;;;5.35;;
19434;SDS011;9853;50.848;4.108;2022-09-06T04:03:11;9.75;;;4.90;;
19434;SDS011;9853;50.848;4.108;2022-09-06T04:05:12;11.00;;;5.53;;
19434;SDS011;9853;50.848;4.108;2022-09-06T04:07:15;6.90;;;5.57;;
19434;SDS011;9853;50.848;4.108;2022-09-06T04:09:16;10.30;;;5.72;;
19434;SDS011;9853;50.848;4.108;2022-09-06T04:11:16;8.25;;;5.57;;
19434;SDS011;9853;50.848;4.108;2022-09-06T04:13:17;8.10;;;5.88;;
19434;SDS011;9853;50.848;4.108;2022-09-06T04:15:18;8.20;;;5.68;;
19434;SDS011;9853;50.848;4.108;2022-09-06T04:17:22;10.85;;;6.13;;
19434;SDS011;9853;50.848;4.108;2022-09-06T04:19:23;11.57;;;5.97;;
19434;SDS011;9853;50.848;4.108;2022-09-06T04:21:24;17.95;;;6.50;;
19434;SDS011;9853;50.848;4.108;2022-09-06T04:23:25;13.98;;;6.55;;
19434;SDS011;9853;50.848;4.108;2022-09-06T04:25:27;8.32;;;5.43;;
19434;SDS011;9853;50.848;4.108;2022-09-06T04:27:28;10.00;;;6.43;;
19434;SDS011;9853;50.848;4.108;2022-09-06T04:29:33;11.23;;;6.40;;
19434;SDS011;9853;50.848;4.108;2022-09-06T04:31:33;12.32;;;6.60;;
19434;SDS011;9853;50.848;4.108;2022-09-06T04:33:35;14.05;;;6.68;;
19434;SDS011;9853;50.848;4.108;2022-09-06T04:35:37;8.18;;;5.78;;
19434;SDS011;9853;50.848;4.108;2022-09-06T04:37:38;13.35;;;6.15;;
19434;SDS011;9853;50.848;4.108;2022-09-06T04:39:39;14.57;;;6.72;;
19434;SDS011;9853;50.848;4.108;2022-09-06T04:41:39;8.60;;;6.70;;
19434;SDS011;9853;50.848;4.108;2022-09-06T04:43:41;9.02;;;6.63;;
19434;SDS011;9853;50.848;4.108;2022-09-06T04:45:42;10.63;;;6.72;;
19434;SDS011;9853;50.848;4.108;2022-09-06T04:47:43;10.73;;;7.47;;
19434;SDS011;9853;50.848;4.108;2022-09-06T04:49:44;13.68;;;7.53;;
19434;SDS011;9853;50.848;4.108;2022-09-06T04:51:47;10.10;;;7.05;;
19434;SDS011;9853;50.848;4.108;2022-09-06T04:53:48;16.90;;;7.10;;
19434;SDS011;9853;50.848;4.108;2022-09-06T04:55:49;10.48;;;6.90;;
19434;SDS011;9853;50.848;4.108;2022-09-06T04:57:50;11.77;;;7.25;;
19434;SDS011;9853;50.848;4.108;2022-09-06T04:59:50;13.75;;;7.03;;
19434;SDS011;9853;50.848;4.108;2022-09-06T05:01:51;9.07;;;6.90;;
19434;SDS011;9853;50.848;4.108;2022-09-06T05:03:52;10.63;;;7.20;;
19434;SDS011;9853;50.848;4.108;2022-09-06T05:06:02;12.70;;;6.65;;
19434;SDS011;9853;50.848;4.108;2022-09-06T05:08:07;11.23;;;6.72;;
19434;SDS011;9853;50.848;4.108;2022-09-06T05:10:07;11.43;;;7.13;;
19434;SDS011;9853;50.848;4.108;2022-09-06T05:12:08;14.35;;;7.28;;
19434;SDS011;9853;50.848;4.108;2022-09-06T05:14:09;12.20;;;6.85;;
19434;SDS011;9853;50.848;4.108;2022-09-06T05:16:10;9.93;;;7.05;;
19434;SDS011;9853;50.848;4.108;2022-09-06T05:18:11;11.77;;;7.28;;
19434;SDS011;9853;50.848;4.108;2022-09-06T05:20:12;14.23;;;7.00;;
19434;SDS011;9853;50.848;4.108;2022-09-06T05:22:13;13.43;;;6.68;;
19434;SDS011;9853;50.848;4.108;2022-09-06T05:24:13;9.63;;;6.90;;
19434;SDS011;9853;50.848;4.108;2022-09-06T05:26:14;13.82;;;6.28;;
19434;SDS011;9853;50.848;4.108;2022-09-06T05:28:15;9.52;;;5.97;;
19434;SDS011;9853;50.848;4.108;2022-09-06T05:30:16;11.45;;;6.53;;
19434;SDS011;9853;50.848;4.108;2022-09-06T05:32:18;13.18;;;5.80;;
19434;SDS011;9853;50.848;4.108;2022-09-06T05:34:19;8.90;;;5.70;;
19434;SDS011;9853;50.848;4.108;2022-09-06T05:36:20;7.75;;;5.30;;
19434;SDS011;9853;50.848;4.108;2022-09-06T05:38:22;10.50;;;5.43;;
19434;SDS011;9853;50.848;4.108;2022-09-06T05:40:24;10.70;;;5.05;;
19434;SDS011;9853;50.848;4.108;2022-09-06T05:42:25;7.15;;;4.80;;
19434;SDS011;9853;50.848;4.108;2022-09-06T05:44:25;14.55;;;5.00;;
19434;SDS011;9853;50.848;4.108;2022-09-06T05:46:26;9.65;;;4.20;;
19434;SDS011;9853;50.848;4.108;2022-09-06T05:48:26;9.00;;;4.65;;
19434;SDS011;9853;50.848;4.108;2022-09-06T05:50:27;15.30;;;4.95;;
19434;SDS011;9853;50.848;4.108;2022-09-06T05:52:28;10.02;;;4.35;;
19434;SDS011;9853;50.848;4.108;2022-09-06T05:54:28;10.90;;;5.20;;
19434;SDS011;9853;50.848;4.108;2022-09-06T05:56:29;8.68;;;4.72;;
19434;SDS011;9853;50.848;4.108;2022-09-06T05:58:30;12.25;;;4.55;;
19434;SDS011;9853;50.848;4.108;2022-09-06T06:00:31;9.07;;;4.60;;
19434;SDS011;9853;50.848;4.108;2022-09-06T06:02:32;9.45;;;4.35;;
19434;SDS011;9853;50.848;4.108;2022-09-06T06:04:32;8.15;;;4.90;;
19434;SDS011;9853;50.848;4.108;2022-09-06T06:06:33;7.28;;;4.53;;
19434;SDS011;9853;50.848;4.108;2022-09-06T06:08:34;8.45;;;4.47;;
19434;SDS011;9853;50.848;4.108;2022-09-06T06:10:35;7.93;;;4.68;;
19434;SDS011;9853;50.848;4.108;2022-09-06T06:12:38;7.30;;;4.57;;
19434;SDS011;9853;50.848;4.108;2022-09-06T06:14:39;10.55;;;4.45;;
19434;SDS011;9853;50.848;4.108;2022-09-06T06:16:40;8.25;;;4.43;;
19434;SDS011;9853;50.848;4.108;2022-09-06T06:18:41;7.60;;;4.70;;
19434;SDS011;9853;50.848;4.108;2022-09-06T06:20:43;8.05;;;4.22;;
19434;SDS011;9853;50.848;4.108;2022-09-06T06:22:44;7.97;;;3.90;;
19434;SDS011;9853;50.848;4.108;2022-09-06T06:24:44;6.78;;;3.92;;
19434;SDS011;9853;50.848;4.108;2022-09-06T06:26:45;6.78;;;3.20;;
19434;SDS011;9853;50.848;4.108;2022-09-06T06:28:46;4.78;;;3.22;;
19434;SDS011;9853;50.848;4.108;2022-09-06T06:30:47;8.80;;;3.75;;
19434;SDS011;9853;50.848;4.108;2022-09-06T06:32:48;6.38;;;3.53;;
19434;SDS011;9853;50.848;4.108;2022-09-06T06:34:49;9.30;;;3.40;;
19434;SDS011;9853;50.848;4.108;2022-09-06T06:36:50;8.00;;;3.45;;
19434;SDS011;9853;50.848;4.108;2022-09-06T06:38:54;5.40;;;2.97;;
19434;SDS011;9853;50.848;4.108;2022-09-06T06:40:55;6.25;;;3.60;;
19434;SDS011;9853;50.848;4.108;2022-09-06T06:42:55;10.73;;;3.50;;
19434;SDS011;9853;50.848;4.108;2022-09-06T06:44:56;5.30;;;2.70;;
19434;SDS011;9853;50.848;4.108;2022-09-06T06:46:57;11.82;;;3.20;;
19434;SDS011;9853;50.848;4.108;2022-09-06T06:49:00;6.55;;;2.60;;
19434;SDS011;9853;50.848;4.108;2022-09-06T06:51:02;11.13;;;2.70;;
19434;SDS011;9853;50.848;4.108;2022-09-06T06:53:03;8.80;;;2.92;;
19434;SDS011;9853;50.848;4.108;2022-09-06T06:55:03;10.75;;;2.88;;
19434;SDS011;9853;50.848;4.108;2022-09-06T06:57:05;6.20;;;2.70;;
19434;SDS011;9853;50.848;4.108;2022-09-06T06:59:08;5.53;;;2.60;;
19434;SDS011;9853;50.848;4.108;2022-09-06T07:01:09;8.68;;;2.53;;
19434;SDS011;9853;50.848;4.108;2022-09-06T07:03:10;5.65;;;2.47;;
19434;SDS011;9853;50.848;4.108;2022-09-06T07:05:11;7.47;;;2.78;;
19434;SDS011;9853;50.848;4.108;2022-09-06T07:07:12;7.43;;;2.92;;
19434;SDS011;9853;50.848;4.108;2022-09-06T07:09:13;5.35;;;2.95;;
19434;SDS011;9853;50.848;4.108;2022-09-06T07:11:15;6.03;;;2.63;;
19434;SDS011;9853;50.848;4.108;2022-09-06T07:13:17;6.47;;;2.83;;
19434;SDS011;9853;50.848;4.108;2022-09-06T07:15:18;7.13;;;2.70;;
19434;SDS011;9853;50.848;4.108;2022-09-06T07:17:18;7.28;;;3.03;;
19434;SDS011;9853;50.848;4.108;2022-09-06T07:19:19;9.52;;;3.05;;
19434;SDS011;9853;50.848;4.108;2022-09-06T07:21:21;7.22;;;3.45;;
19434;SDS011;9853;50.848;4.108;2022-09-06T07:23:26;7.88;;;3.03;;
19434;SDS011;9853;50.848;4.108;2022-09-06T07:25:27;9.63;;;3.13;;
19434;SDS011;9853;50.848;4.108;2022-09-06T07:27:28;6.32;;;3.08;;
19434;SDS011;9853;50.848;4.108;2022-09-06T07:29:28;6.38;;;3.20;;
19434;SDS011;9853;50.848;4.108;2022-09-06T07:31:30;7.57;;;3.00;;
19434;SDS011;9853;50.848;4.108;2022-09-06T07:33:33;6.97;;;2.90;;
19434;SDS011;9853;50.848;4.108;2022-09-06T07:35:35;8.63;;;2.80;;
19434;SDS011;9853;50.848;4.108;2022-09-06T07:37:35;5.40;;;3.13;;
19434;SDS011;9853;50.848;4.108;2022-09-06T07:39:36;4.07;;;3.00;;
19434;SDS011;9853;50.848;4.108;2022-09-06T07:41:37;3.55;;;2.72;;
19434;SDS011;9853;50.848;4.108;2022-09-06T07:43:38;4.65;;;3.00;;
19434;SDS011;9853;50.848;4.108;2022-09-06T07:45:39;5.35;;;2.97;;
19434;SDS011;9853;50.848;4.108;2022-09-06T07:47:40;4.43;;;2.83;;
19434;SDS011;9853;50.848;4.108;2022-09-06T07:49:41;4.38;;;2.63;;
19434;SDS011;9853;50.848;4.108;2022-09-06T07:51:42;7.28;;;2.80;;
19434;SDS011;9853;50.848;4.108;2022-09-06T07:53:48;5.70;;;2.83;;
19434;SDS011;9853;50.848;4.108;2022-09-06T07:55:51;7.45;;;2.60;;
19434;SDS011;9853;50.848;4.108;2022-09-06T07:57:52;11.07;;;2.85;;
19434;SDS011;9853;50.848;4.108;2022-09-06T07:59:53;3.78;;;2.22;;
19434;SDS011;9853;50.848;4.108;2022-09-06T08:01:53;6.28;;;2.30;;
19434;SDS011;9853;50.848;4.108;2022-09-06T08:03:58;8.85;;;2.50;;
19434;SDS011;9853;50.848;4.108;2022-09-06T08:06:00;3.58;;;1.95;;
19434;SDS011;9853;50.848;4.108;2022-09-06T08:08:01;4.70;;;2.30;;
19434;SDS011;9853;50.848;4.108;2022-09-06T08:10:02;6.47;;;2.30;;
19434;SDS011;9853;50.848;4.108;2022-09-06T08:12:03;7.78;;;2.22;;
19434;SDS011;9853;50.848;4.108;2022-09-06T08:14:07;11.38;;;2.00;;
19434;SDS011;9853;50.848;4.108;2022-09-06T08:16:09;3.17;;;2.08;;
19434;SDS011;9853;50.848;4.108;2022-09-06T08:18:10;7.75;;;2.00;;
19434;SDS011;9853;50.848;4.108;2022-09-06T08:20:11;9.85;;;2.17;;
19434;SDS011;9853;50.848;4.108;2022-09-06T08:22:12;4.07;;;2.30;;
19434;SDS011;9853;50.848;4.108;2022-09-06T08:24:12;10.52;;;2.20;;
19434;SDS011;9853;50.848;4.108;2022-09-06T08:26:16;7.30;;;2.58;;
19434;SDS011;9853;50.848;4.108;2022-09-06T08:28:19;6.10;;;2.13;;
19434;SDS011;9853;50.848;4.108;2022-09-06T08:30:20;4.60;;;2.20;;
19434;SDS011;9853;50.848;4.108;2022-09-06T08:32:21;7.93;;;2.25;;
19434;SDS011;9853;50.848;4.108;2022-09-06T08:34:21;6.07;;;2.40;;
19434;SDS011;9853;50.848;4.108;2022-09-06T08:36:22;5.63;;;2.60;;
19434;SDS011;9853;50.848;4.108;2022-09-06T08:38:26;5.85;;;2.60;;
19434;SDS011;9853;50.848;4.108;2022-09-06T08:40:27;4.13;;;2.35;;
19434;SDS011;9853;50.848;4.108;2022-09-06T08:42:27;5.72;;;2.70;;
19434;SDS011;9853;50.848;4.108;2022-09-06T08:44:31;7.80;;;2.90;;
19434;SDS011;9853;50.848;4.108;2022-09-06T08:47:13;4.13;;;2.60;;
19434;SDS011;9853;50.848;4.108;2022-09-06T08:49:06;5.53;;;2.55;;
19434;SDS011;9853;50.848;4.108;2022-09-06T08:53:30;5.72;;;2.40;;
19434;SDS011;9853;50.848;4.108;2022-09-06T08:55:51;6.20;;;2.85;;
19434;SDS011;9853;50.848;4.108;2022-09-06T09:00:10;6.72;;;2.78;;
19434;SDS011;9853;50.848;4.108;2022-09-06T09:02:16;8.32;;;3.00;;
19434;SDS011;9853;50.848;4.108;2022-09-06T09:04:19;6.80;;;2.60;;
19434;SDS011;9853;50.848;4.108;2022-09-06T09:06:23;4.93;;;2.90;;
19434;SDS011;9853;50.848;4.108;2022-09-06T09:08:27;3.63;;;2.70;;
19434;SDS011;9853;50.848;4.108;2022-09-06T09:10:37;6.18;;;2.63;;
19434;SDS011;9853;50.848;4.108;2022-09-06T09:12:43;6.72;;;2.50;;
19434;SDS011;9853;50.848;4.108;2022-09-06T09:14:46;5.85;;;2.53;;
19434;SDS011;9853;50.848;4.108;2022-09-06T09:16:49;4.53;;;2.53;;
19434;SDS011;9853;50.848;4.108;2022-09-06T09:18:52;6.80;;;2.30;;
19434;SDS011;9853;50.848;4.108;2022-09-06T09:20:57;13.63;;;2.20;;
19434;SDS011;9853;50.848;4.108;2022-09-06T09:22:58;6.05;;;2.70;;
19434;SDS011;9853;50.848;4.108;2022-09-06T09:24:58;5.70;;;2.33;;
19434;SDS011;9853;50.848;4.108;2022-09-06T09:27:07;7.18;;;2.08;;
19434;SDS011;9853;50.848;4.108;2022-09-06T09:29:11;10.70;;;2.65;;
19434;SDS011;9853;50.848;4.108;2022-09-06T09:31:13;3.95;;;2.10;;
19434;SDS011;9853;50.848;4.108;2022-09-06T09:33:33;6.35;;;2.03;;
19434;SDS011;9853;50.848;4.108;2022-09-06T09:35:41;9.13;;;2.20;;
19434;SDS011;9853;50.848;4.108;2022-09-06T09:37:42;8.88;;;2.28;;
19434;SDS011;9853;50.848;4.108;2022-09-06T09:39:43;5.47;;;2.10;;
19434;SDS011;9853;50.848;4.108;2022-09-06T09:41:46;6.82;;;2.10;;
19434;SDS011;9853;50.848;4.108;2022-09-06T09:48:27;7.20;;;1.67;;
19434;SDS011;9853;50.848;4.108;2022-09-06T09:50:32;6.30;;;2.30;;
19434;SDS011;9853;50.848;4.108;2022-09-06T09:52:33;3.78;;;2.17;;
19434;SDS011;9853;50.848;4.108;2022-09-06T09:54:44;5.35;;;2.40;;
19434;SDS011;9853;50.848;4.108;2022-09-06T09:56:49;4.63;;;2.40;;
19434;SDS011;9853;50.848;4.108;2022-09-06T09:58:52;5.68;;;2.30;;
19434;SDS011;9853;50.848;4.108;2022-09-06T10:01:08;7.85;;;1.90;;
19434;SDS011;9853;50.848;4.108;2022-09-06T10:03:22;4.80;;;1.77;;
19434;SDS011;9853;50.848;4.108;2022-09-06T10:05:27;5.53;;;2.25;;
19434;SDS011;9853;50.848;4.108;2022-09-06T10:07:28;6.30;;;1.95;;
19434;SDS011;9853;50.848;4.108;2022-09-06T10:09:38;10.07;;;2.63;;
19434;SDS011;9853;50.848;4.108;2022-09-06T10:11:54;8.55;;;2.45;;
19434;SDS011;9853;50.848;4.108;2022-09-06T10:14:10;10.45;;;2.53;;
19434;SDS011;9853;50.848;4.108;2022-09-06T10:16:19;6.95;;;2.45;;
19434;SDS011;9853;50.848;4.108;2022-09-06T10:18:44;9.80;;;2.25;;
19434;SDS011;9853;50.848;4.108;2022-09-06T10:23:23;6.35;;;2.15;;
19434;SDS011;9853;50.848;4.108;2022-09-06T10:25:41;9.15;;;2.40;;
19434;SDS011;9853;50.848;4.108;2022-09-06T10:30:04;5.10;;;2.10;;
19434;SDS011;9853;50.848;4.108;2022-09-06T10:37:16;6.15;;;1.83;;
19434;SDS011;9853;50.848;4.108;2022-09-06T10:39:33;10.63;;;1.80;;
19434;SDS011;9853;50.848;4.108;2022-09-06T10:46:15;6.03;;;1.45;;
19434;SDS011;9853;50.848;4.108;2022-09-06T10:48:23;3.70;;;1.35;;
19434;SDS011;9853;50.848;4.108;2022-09-06T10:52:35;7.25;;;1.73;;
19434;SDS011;9853;50.848;4.108;2022-09-06T10:54:40;12.10;;;1.80;;
19434;SDS011;9853;50.848;4.108;2022-09-06T10:56:46;5.80;;;1.50;;
19434;SDS011;9853;50.848;4.108;2022-09-06T11:01:19;3.55;;;1.50;;
19434;SDS011;9853;50.848;4.108;2022-09-06T11:03:34;8.07;;;1.65;;
19434;SDS011;9853;50.848;4.108;2022-09-06T11:05:50;6.88;;;1.48;;
19434;SDS011;9853;50.848;4.108;2022-09-06T11:07:54;8.00;;;1.60;;
19434;SDS011;9853;50.848;4.108;2022-09-06T11:14:42;5.70;;;1.98;;
19434;SDS011;9853;50.848;4.108;2022-09-06T11:16:45;5.55;;;1.40;;
19434;SDS011;9853;50.848;4.108;2022-09-06T11:19:07;7.55;;;1.50;;
19434;SDS011;9853;50.848;4.108;2022-09-06T11:27:34;6.45;;;1.40;;
19434;SDS011;9853;50.848;4.108;2022-09-06T11:29:41;8.15;;;1.58;;
19434;SDS011;9853;50.848;4.108;2022-09-06T11:31:58;7.05;;;1.17;;
19434;SDS011;9853;50.848;4.108;2022-09-06T11:34:05;7.32;;;1.48;;
19434;SDS011;9853;50.848;4.108;2022-09-06T11:36:16;7.35;;;1.60;;
19434;SDS011;9853;50.848;4.108;2022-09-06T11:38:21;3.60;;;1.13;;
19434;SDS011;9853;50.848;4.108;2022-09-06T11:40:26;3.45;;;1.10;;
19434;SDS011;9853;50.848;4.108;2022-09-06T11:49:07;5.03;;;1.30;;
19434;SDS011;9853;50.848;4.108;2022-09-06T11:51:44;6.15;;;1.20;;
19434;SDS011;9853;50.848;4.108;2022-09-06T11:55:50;5.60;;;1.05;;
19434;SDS011;9853;50.848;4.108;2022-09-06T11:58:18;6.65;;;1.13;;
19434;SDS011;9853;50.848;4.108;2022-09-06T12:00:25;4.15;;;1.13;;
19434;SDS011;9853;50.848;4.108;2022-09-06T12:02:36;8.15;;;0.90;;
19434;SDS011;9853;50.848;4.108;2022-09-06T12:05:24;3.28;;;1.00;;
19434;SDS011;9853;50.848;4.108;2022-09-06T12:07:07;10.35;;;1.20;;
19434;SDS011;9853;50.848;4.108;2022-09-06T12:11:36;7.40;;;1.00;;
19434;SDS011;9853;50.848;4.108;2022-09-06T12:15:44;3.33;;;0.90;;
19434;SDS011;9853;50.848;4.108;2022-09-06T12:17:52;3.88;;;1.20;;
19434;SDS011;9853;50.848;4.108;2022-09-06T12:19:55;3.28;;;1.17;;
19434;SDS011;9853;50.848;4.108;2022-09-06T12:26:43;3.20;;;0.93;;
19434;SDS011;9853;50.848;4.108;2022-09-06T12:28:49;4.78;;;1.40;;
19434;SDS011;9853;50.848;4.108;2022-09-06T12:30:51;5.70;;;1.00;;
19434;SDS011;9853;50.848;4.108;2022-09-06T12:32:52;5.95;;;0.98;;
19434;SDS011;9853;50.848;4.108;2022-09-06T12:34:53;2.90;;;1.10;;
19434;SDS011;9853;50.848;4.108;2022-09-06T12:37:05;3.90;;;1.20;;
19434;SDS011;9853;50.848;4.108;2022-09-06T12:39:10;2.83;;;0.98;;
19434;SDS011;9853;50.848;4.108;2022-09-06T12:41:13;2.70;;;1.05;;
19434;SDS011;9853;50.848;4.108;2022-09-06T12:43:15;3.38;;;0.90;;
19434;SDS011;9853;50.848;4.108;2022-09-06T12:45:16;3.15;;;0.90;;
19434;SDS011;9853;50.848;4.108;2022-09-06T12:47:24;6.50;;;1.23;;
19434;SDS011;9853;50.848;4.108;2022-09-06T12:49:28;5.45;;;1.25;;
19434;SDS011;9853;50.848;4.108;2022-09-06T12:51:29;3.13;;;0.85;;
19434;SDS011;9853;50.848;4.108;2022-09-06T12:53:30;6.72;;;1.20;;
19434;SDS011;9853;50.848;4.108;2022-09-06T12:55:36;4.78;;;1.17;;
19434;SDS011;9853;50.848;4.108;2022-09-06T12:57:37;6.45;;;1.17;;
19434;SDS011;9853;50.848;4.108;2022-09-06T12:59:48;11.45;;;1.10;;
19434;SDS011;9853;50.848;4.108;2022-09-06T13:01:59;3.10;;;0.90;;
19434;SDS011;9853;50.848;4.108;2022-09-06T13:06:11;6.18;;;0.90;;
19434;SDS011;9853;50.848;4.108;2022-09-06T13:08:21;4.50;;;1.20;;
19434;SDS011;9853;50.848;4.108;2022-09-06T13:10:44;4.35;;;0.90;;
19434;SDS011;9853;50.848;4.108;2022-09-06T13:12:46;5.18;;;1.00;;
19434;SDS011;9853;50.848;4.108;2022-09-06T13:14:53;7.00;;;1.17;;
19434;SDS011;9853;50.848;4.108;2022-09-06T13:16:55;2.75;;;0.90;;
19434;SDS011;9853;50.848;4.108;2022-09-06T13:19:09;6.85;;;1.20;;
19434;SDS011;9853;50.848;4.108;2022-09-06T13:21:33;6.75;;;1.17;;
19434;SDS011;9853;50.848;4.108;2022-09-06T13:23:41;2.80;;;1.30;;
19434;SDS011;9853;50.848;4.108;2022-09-06T13:25:48;5.75;;;1.05;;
19434;SDS011;9853;50.848;4.108;2022-09-06T13:27:51;3.38;;;1.20;;
19434;SDS011;9853;50.848;4.108;2022-09-06T13:30:00;4.88;;;1.20;;
19434;SDS011;9853;50.848;4.108;2022-09-06T13:32:11;5.78;;;0.98;;
19434;SDS011;9853;50.848;4.108;2022-09-06T13:34:20;5.50;;;1.10;;
19434;SDS011;9853;50.848;4.108;2022-09-06T13:36:23;7.53;;;1.00;;
19434;SDS011;9853;50.848;4.108;2022-09-06T13:38:31;3.63;;;0.90;;
19434;SDS011;9853;50.848;4.108;2022-09-06T13:40:41;1.95;;;0.95;;
19434;SDS011;9853;50.848;4.108;2022-09-06T13:42:43;8.07;;;1.20;;
19434;SDS011;9853;50.848;4.108;2022-09-06T13:44:43;8.98;;;1.40;;
19434;SDS011;9853;50.848;4.108;2022-09-06T13:46:45;3.75;;;1.20;;
19434;SDS011;9853;50.848;4.108;2022-09-06T13:48:46;5.63;;;1.15;;
19434;SDS011;9853;50.848;4.108;2022-09-06T13:50:46;1.20;;;0.70;;
19434;SDS011;9853;50.848;4.108;2022-09-06T13:52:47;4.97;;;0.82;;
19434;SDS011;9853;50.848;4.108;2022-09-06T13:54:48;4.15;;;1.20;;
19434;SDS011;9853;50.848;4.108;2022-09-06T13:56:49;6.95;;;1.10;;
19434;SDS011;9853;50.848;4.108;2022-09-06T13:58:50;4.32;;;1.00;;
19434;SDS011;9853;50.848;4.108;2022-09-06T14:00:51;8.65;;;1.20;;
19434;SDS011;9853;50.848;4.108;2022-09-06T14:02:53;2.22;;;0.80;;
19434;SDS011;9853;50.848;4.108;2022-09-06T14:04:54;4.38;;;1.08;;